Petrified Forest Natl Park, Arizona
Current Conditions -  °F | °C
As of 5:54 PM on Wednesday 17 Dec 2014 (Local Time) from KSJN Reporting Station
Few Clouds Few Clouds  
Wind Chill: 28°   Ceiling: Unl
Heat Index: 37°   Visibility: 10mi
Dew Point: 30°   Wind: 16mph
Humidity: 76%   Direction: 230°SW
Pressure: 30.04"   Gusts: NA
Location:  34.92°N, 109.82°W
Report Text: KSJN 180054Z AUTO 23014KT 10SM FEW110 03/M01 A3004 RMK AO2 SLP155 T00281011
Loading
Personal Weather Stations






























Interactive Weather Map New forecast layout! Learn more

10-Day Weather Forecast

Advertisements
Track Severe Weather on mobile